sensor_id;sensor_type;location;lat;lon;timestamp;P1;durP1;ratioP1;P2;durP2;ratioP2
40286;SDS011;25998;46.604;13.610;2023-04-22T00:02:04;7.68;;;6.88;;
40286;SDS011;25998;46.604;13.610;2023-04-22T00:05:15;8.30;;;7.10;;
40286;SDS011;25998;46.604;13.610;2023-04-22T00:08:27;8.32;;;7.20;;
40286;SDS011;25998;46.604;13.610;2023-04-22T00:11:38;8.13;;;7.32;;
40286;SDS011;25998;46.604;13.610;2023-04-22T00:14:49;7.75;;;6.68;;
40286;SDS011;25998;46.604;13.610;2023-04-22T00:18:00;8.65;;;7.75;;
40286;SDS011;25998;46.604;13.610;2023-04-22T00:21:11;9.60;;;7.70;;
40286;SDS011;25998;46.604;13.610;2023-04-22T00:24:22;9.38;;;7.13;;
40286;SDS011;25998;46.604;13.610;2023-04-22T00:27:32;7.43;;;6.57;;
40286;SDS011;25998;46.604;13.610;2023-04-22T00:30:43;8.30;;;7.07;;
40286;SDS011;25998;46.604;13.610;2023-04-22T00:33:54;8.60;;;7.45;;
40286;SDS011;25998;46.604;13.610;2023-04-22T00:37:05;8.38;;;7.53;;
40286;SDS011;25998;46.604;13.610;2023-04-22T00:40:16;7.75;;;6.60;;
40286;SDS011;25998;46.604;13.610;2023-04-22T00:43:27;8.35;;;6.38;;
40286;SDS011;25998;46.604;13.610;2023-04-22T00:46:38;7.88;;;6.65;;
40286;SDS011;25998;46.604;13.610;2023-04-22T00:49:49;8.07;;;7.22;;
40286;SDS011;25998;46.604;13.610;2023-04-22T00:53:00;9.13;;;6.93;;
40286;SDS011;25998;46.604;13.610;2023-04-22T00:56:11;7.63;;;6.20;;
40286;SDS011;25998;46.604;13.610;2023-04-22T00:59:22;6.63;;;5.78;;
40286;SDS011;25998;46.604;13.610;2023-04-22T01:02:37;6.47;;;5.82;;
40286;SDS011;25998;46.604;13.610;2023-04-22T01:05:49;7.50;;;6.35;;
40286;SDS011;25998;46.604;13.610;2023-04-22T01:09:00;6.22;;;5.63;;
40286;SDS011;25998;46.604;13.610;2023-04-22T01:12:11;7.70;;;6.47;;
40286;SDS011;25998;46.604;13.610;2023-04-22T01:15:22;7.80;;;6.53;;
40286;SDS011;25998;46.604;13.610;2023-04-22T01:18:34;8.15;;;6.05;;
40286;SDS011;25998;46.604;13.610;2023-04-22T01:21:46;7.40;;;6.47;;
40286;SDS011;25998;46.604;13.610;2023-04-22T01:24:59;10.27;;;7.15;;
40286;SDS011;25998;46.604;13.610;2023-04-22T01:28:11;7.18;;;6.13;;
40286;SDS011;25998;46.604;13.610;2023-04-22T01:31:22;6.30;;;5.70;;
40286;SDS011;25998;46.604;13.610;2023-04-22T01:34:33;6.85;;;5.70;;
40286;SDS011;25998;46.604;13.610;2023-04-22T01:37:44;6.93;;;5.85;;
40286;SDS011;25998;46.604;13.610;2023-04-22T01:40:55;6.28;;;5.20;;
40286;SDS011;25998;46.604;13.610;2023-04-22T01:44:06;6.78;;;6.07;;
40286;SDS011;25998;46.604;13.610;2023-04-22T01:47:17;6.60;;;5.85;;
40286;SDS011;25998;46.604;13.610;2023-04-22T01:50:28;7.95;;;6.43;;
40286;SDS011;25998;46.604;13.610;2023-04-22T01:53:38;6.55;;;5.95;;
40286;SDS011;25998;46.604;13.610;2023-04-22T01:56:50;7.70;;;6.82;;
40286;SDS011;25998;46.604;13.610;2023-04-22T02:00:04;7.88;;;6.63;;
40286;SDS011;25998;46.604;13.610;2023-04-22T02:03:18;6.32;;;5.72;;
40286;SDS011;25998;46.604;13.610;2023-04-22T02:06:29;9.95;;;7.05;;
40286;SDS011;25998;46.604;13.610;2023-04-22T02:09:40;7.75;;;6.95;;
40286;SDS011;25998;46.604;13.610;2023-04-22T02:12:51;8.73;;;7.00;;
40286;SDS011;25998;46.604;13.610;2023-04-22T02:16:02;8.75;;;6.68;;
40286;SDS011;25998;46.604;13.610;2023-04-22T02:19:14;6.82;;;6.13;;
40286;SDS011;25998;46.604;13.610;2023-04-22T02:22:25;7.53;;;6.30;;
40286;SDS011;25998;46.604;13.610;2023-04-22T02:25:38;6.35;;;5.72;;
40286;SDS011;25998;46.604;13.610;2023-04-22T02:28:49;8.77;;;6.60;;
40286;SDS011;25998;46.604;13.610;2023-04-22T02:32:00;7.28;;;6.22;;
40286;SDS011;25998;46.604;13.610;2023-04-22T02:35:11;6.53;;;5.85;;
40286;SDS011;25998;46.604;13.610;2023-04-22T02:38:22;8.18;;;5.60;;
40286;SDS011;25998;46.604;13.610;2023-04-22T02:41:33;6.15;;;5.55;;
40286;SDS011;25998;46.604;13.610;2023-04-22T02:44:44;8.38;;;6.20;;
40286;SDS011;25998;46.604;13.610;2023-04-22T02:47:55;7.53;;;6.13;;
40286;SDS011;25998;46.604;13.610;2023-04-22T02:51:06;7.35;;;6.43;;
40286;SDS011;25998;46.604;13.610;2023-04-22T02:54:16;8.38;;;5.80;;
40286;SDS011;25998;46.604;13.610;2023-04-22T02:57:27;7.75;;;6.63;;
40286;SDS011;25998;46.604;13.610;2023-04-22T03:00:38;7.20;;;6.22;;
40286;SDS011;25998;46.604;13.610;2023-04-22T03:03:49;8.85;;;6.20;;
40286;SDS011;25998;46.604;13.610;2023-04-22T03:07:00;6.53;;;5.68;;
40286;SDS011;25998;46.604;13.610;2023-04-22T03:10:11;7.10;;;6.10;;
40286;SDS011;25998;46.604;13.610;2023-04-22T03:13:21;7.40;;;5.55;;
40286;SDS011;25998;46.604;13.610;2023-04-22T03:16:32;6.95;;;5.88;;
40286;SDS011;25998;46.604;13.610;2023-04-22T03:19:43;7.93;;;6.13;;
40286;SDS011;25998;46.604;13.610;2023-04-22T03:22:54;7.13;;;5.78;;
40286;SDS011;25998;46.604;13.610;2023-04-22T03:26:05;7.80;;;6.03;;
40286;SDS011;25998;46.604;13.610;2023-04-22T03:29:16;8.98;;;6.03;;
40286;SDS011;25998;46.604;13.610;2023-04-22T03:32:27;9.90;;;6.07;;
40286;SDS011;25998;46.604;13.610;2023-04-22T03:35:38;7.25;;;6.20;;
40286;SDS011;25998;46.604;13.610;2023-04-22T03:38:48;7.47;;;5.40;;
40286;SDS011;25998;46.604;13.610;2023-04-22T03:42:00;6.13;;;5.25;;
40286;SDS011;25998;46.604;13.610;2023-04-22T03:45:11;6.45;;;5.45;;
40286;SDS011;25998;46.604;13.610;2023-04-22T03:48:22;9.70;;;6.05;;
40286;SDS011;25998;46.604;13.610;2023-04-22T03:51:32;7.28;;;5.50;;
40286;SDS011;25998;46.604;13.610;2023-04-22T03:54:43;6.63;;;5.53;;
40286;SDS011;25998;46.604;13.610;2023-04-22T03:57:54;7.22;;;5.97;;
40286;SDS011;25998;46.604;13.610;2023-04-22T04:01:05;7.07;;;5.70;;
40286;SDS011;25998;46.604;13.610;2023-04-22T04:04:16;7.47;;;5.47;;
40286;SDS011;25998;46.604;13.610;2023-04-22T04:07:27;8.15;;;5.53;;
40286;SDS011;25998;46.604;13.610;2023-04-22T04:10:38;7.82;;;6.28;;
40286;SDS011;25998;46.604;13.610;2023-04-22T04:13:50;7.32;;;6.13;;
40286;SDS011;25998;46.604;13.610;2023-04-22T04:17:01;6.43;;;5.47;;
40286;SDS011;25998;46.604;13.610;2023-04-22T04:20:13;9.52;;;6.15;;
40286;SDS011;25998;46.604;13.610;2023-04-22T04:23:25;7.25;;;6.30;;
40286;SDS011;25998;46.604;13.610;2023-04-22T04:26:36;7.45;;;6.00;;
40286;SDS011;25998;46.604;13.610;2023-04-22T04:29:47;13.52;;;6.22;;
40286;SDS011;25998;46.604;13.610;2023-04-22T04:32:58;8.73;;;6.40;;
40286;SDS011;25998;46.604;13.610;2023-04-22T04:36:15;8.85;;;6.13;;
40286;SDS011;25998;46.604;13.610;2023-04-22T04:39:26;9.63;;;6.50;;
40286;SDS011;25998;46.604;13.610;2023-04-22T04:42:37;10.00;;;6.30;;
40286;SDS011;25998;46.604;13.610;2023-04-22T04:45:48;8.25;;;6.25;;
40286;SDS011;25998;46.604;13.610;2023-04-22T04:48:59;12.10;;;6.78;;
40286;SDS011;25998;46.604;13.610;2023-04-22T04:52:10;22.17;;;15.95;;
40286;SDS011;25998;46.604;13.610;2023-04-22T04:55:21;8.88;;;7.50;;
40286;SDS011;25998;46.604;13.610;2023-04-22T04:58:32;12.40;;;7.32;;
40286;SDS011;25998;46.604;13.610;2023-04-22T05:01:43;13.68;;;6.57;;
40286;SDS011;25998;46.604;13.610;2023-04-22T05:04:54;9.25;;;7.32;;
40286;SDS011;25998;46.604;13.610;2023-04-22T05:08:05;10.35;;;7.20;;
40286;SDS011;25998;46.604;13.610;2023-04-22T05:11:16;8.82;;;6.85;;
40286;SDS011;25998;46.604;13.610;2023-04-22T05:14:26;7.57;;;6.60;;
40286;SDS011;25998;46.604;13.610;2023-04-22T05:17:37;12.57;;;7.57;;
40286;SDS011;25998;46.604;13.610;2023-04-22T05:20:48;14.48;;;6.75;;
40286;SDS011;25998;46.604;13.610;2023-04-22T05:23:59;10.38;;;6.30;;
40286;SDS011;25998;46.604;13.610;2023-04-22T05:27:10;9.48;;;6.90;;
40286;SDS011;25998;46.604;13.610;2023-04-22T05:30:21;11.02;;;7.45;;
40286;SDS011;25998;46.604;13.610;2023-04-22T05:33:32;9.35;;;8.07;;
40286;SDS011;25998;46.604;13.610;2023-04-22T05:36:43;16.88;;;11.75;;
40286;SDS011;25998;46.604;13.610;2023-04-22T05:39:53;14.70;;;7.88;;
40286;SDS011;25998;46.604;13.610;2023-04-22T05:43:05;11.68;;;7.80;;
40286;SDS011;25998;46.604;13.610;2023-04-22T05:46:19;16.15;;;8.43;;
40286;SDS011;25998;46.604;13.610;2023-04-22T05:49:29;17.40;;;15.80;;
40286;SDS011;25998;46.604;13.610;2023-04-22T05:52:40;13.60;;;12.30;;
40286;SDS011;25998;46.604;13.610;2023-04-22T05:55:52;11.13;;;8.77;;
40286;SDS011;25998;46.604;13.610;2023-04-22T05:59:03;11.40;;;9.18;;
40286;SDS011;25998;46.604;13.610;2023-04-22T06:02:13;9.95;;;7.22;;
40286;SDS011;25998;46.604;13.610;2023-04-22T06:05:25;9.18;;;7.20;;
40286;SDS011;25998;46.604;13.610;2023-04-22T06:08:36;8.70;;;6.88;;
40286;SDS011;25998;46.604;13.610;2023-04-22T06:11:47;7.50;;;6.47;;
40286;SDS011;25998;46.604;13.610;2023-04-22T06:15:00;9.00;;;7.35;;
40286;SDS011;25998;46.604;13.610;2023-04-22T06:18:10;9.20;;;7.60;;
40286;SDS011;25998;46.604;13.610;2023-04-22T06:21:21;11.52;;;7.72;;
40286;SDS011;25998;46.604;13.610;2023-04-22T06:24:32;12.88;;;7.05;;
40286;SDS011;25998;46.604;13.610;2023-04-22T06:27:43;9.80;;;6.97;;
40286;SDS011;25998;46.604;13.610;2023-04-22T06:30:54;10.07;;;6.68;;
40286;SDS011;25998;46.604;13.610;2023-04-22T06:34:05;9.68;;;6.90;;
40286;SDS011;25998;46.604;13.610;2023-04-22T06:37:15;7.93;;;6.05;;
40286;SDS011;25998;46.604;13.610;2023-04-22T06:40:27;7.32;;;5.38;;
40286;SDS011;25998;46.604;13.610;2023-04-22T06:43:38;6.70;;;5.72;;
40286;SDS011;25998;46.604;13.610;2023-04-22T06:46:48;7.90;;;5.20;;
40286;SDS011;25998;46.604;13.610;2023-04-22T06:50:00;5.90;;;4.63;;
40286;SDS011;25998;46.604;13.610;2023-04-22T06:53:11;5.00;;;4.30;;
40286;SDS011;25998;46.604;13.610;2023-04-22T06:56:22;5.28;;;4.78;;
40286;SDS011;25998;46.604;13.610;2023-04-22T06:59:33;6.50;;;4.60;;
40286;SDS011;25998;46.604;13.610;2023-04-22T07:02:44;6.10;;;4.40;;
40286;SDS011;25998;46.604;13.610;2023-04-22T07:05:55;9.02;;;4.68;;
40286;SDS011;25998;46.604;13.610;2023-04-22T07:09:06;5.95;;;4.82;;
40286;SDS011;25998;46.604;13.610;2023-04-22T07:12:17;8.80;;;7.50;;
40286;SDS011;25998;46.604;13.610;2023-04-22T07:15:28;8.45;;;7.47;;
40286;SDS011;25998;46.604;13.610;2023-04-22T07:18:39;6.03;;;5.43;;
40286;SDS011;25998;46.604;13.610;2023-04-22T07:21:49;6.97;;;4.18;;
40286;SDS011;25998;46.604;13.610;2023-04-22T07:25:00;5.25;;;4.13;;
40286;SDS011;25998;46.604;13.610;2023-04-22T07:28:12;4.47;;;4.00;;
40286;SDS011;25998;46.604;13.610;2023-04-22T07:31:23;4.95;;;4.00;;
40286;SDS011;25998;46.604;13.610;2023-04-22T07:34:34;6.68;;;4.93;;
40286;SDS011;25998;46.604;13.610;2023-04-22T07:37:44;6.05;;;3.83;;
40286;SDS011;25998;46.604;13.610;2023-04-22T07:40:55;5.80;;;3.65;;
40286;SDS011;25998;46.604;13.610;2023-04-22T07:44:06;5.20;;;3.25;;
40286;SDS011;25998;46.604;13.610;2023-04-22T07:47:19;5.03;;;4.18;;
40286;SDS011;25998;46.604;13.610;2023-04-22T07:50:30;6.22;;;4.35;;
40286;SDS011;25998;46.604;13.610;2023-04-22T07:53:44;4.75;;;3.53;;
40286;SDS011;25998;46.604;13.610;2023-04-22T07:56:57;3.85;;;3.13;;
40286;SDS011;25998;46.604;13.610;2023-04-22T08:00:08;3.85;;;3.40;;
40286;SDS011;25998;46.604;13.610;2023-04-22T08:03:19;4.70;;;3.72;;
40286;SDS011;25998;46.604;13.610;2023-04-22T08:06:31;4.10;;;3.00;;
40286;SDS011;25998;46.604;13.610;2023-04-22T08:09:41;3.95;;;3.20;;
40286;SDS011;25998;46.604;13.610;2023-04-22T08:12:52;3.65;;;3.00;;
40286;SDS011;25998;46.604;13.610;2023-04-22T08:16:06;5.75;;;3.20;;
40286;SDS011;25998;46.604;13.610;2023-04-22T08:19:20;4.68;;;3.22;;
40286;SDS011;25998;46.604;13.610;2023-04-22T08:22:33;4.28;;;2.72;;
40286;SDS011;25998;46.604;13.610;2023-04-22T08:25:44;4.10;;;3.13;;
40286;SDS011;25998;46.604;13.610;2023-04-22T08:28:59;6.82;;;3.33;;
40286;SDS011;25998;46.604;13.610;2023-04-22T08:32:13;5.80;;;4.65;;
40286;SDS011;25998;46.604;13.610;2023-04-22T08:35:24;4.13;;;3.30;;
40286;SDS011;25998;46.604;13.610;2023-04-22T08:38:36;4.25;;;3.08;;
40286;SDS011;25998;46.604;13.610;2023-04-22T08:41:50;3.10;;;2.67;;
40286;SDS011;25998;46.604;13.610;2023-04-22T08:45:02;3.10;;;2.63;;
40286;SDS011;25998;46.604;13.610;2023-04-22T08:48:15;3.60;;;2.85;;
40286;SDS011;25998;46.604;13.610;2023-04-22T08:51:28;3.33;;;2.90;;
40286;SDS011;25998;46.604;13.610;2023-04-22T08:54:42;5.43;;;3.13;;
40286;SDS011;25998;46.604;13.610;2023-04-22T08:57:53;3.47;;;3.15;;
40286;SDS011;25998;46.604;13.610;2023-04-22T09:01:04;3.58;;;3.10;;
40286;SDS011;25998;46.604;13.610;2023-04-22T09:04:20;3.13;;;2.83;;
40286;SDS011;25998;46.604;13.610;2023-04-22T09:07:33;12.35;;;6.55;;
40286;SDS011;25998;46.604;13.610;2023-04-22T09:10:45;5.38;;;3.05;;
40286;SDS011;25998;46.604;13.610;2023-04-22T09:13:56;7.10;;;3.92;;
40286;SDS011;25998;46.604;13.610;2023-04-22T09:17:07;5.15;;;3.92;;
40286;SDS011;25998;46.604;13.610;2023-04-22T09:20:18;8.13;;;3.83;;
40286;SDS011;25998;46.604;13.610;2023-04-22T09:23:49;3.00;;;2.53;;
40286;SDS011;25998;46.604;13.610;2023-04-22T09:27:02;3.15;;;2.85;;
40286;SDS011;25998;46.604;13.610;2023-04-22T09:30:14;3.88;;;3.13;;
40286;SDS011;25998;46.604;13.610;2023-04-22T09:33:25;4.05;;;2.75;;
40286;SDS011;25998;46.604;13.610;2023-04-22T09:36:35;4.35;;;2.60;;
40286;SDS011;25998;46.604;13.610;2023-04-22T09:39:47;2.75;;;2.45;;
40286;SDS011;25998;46.604;13.610;2023-04-22T09:43:00;2.92;;;2.63;;
40286;SDS011;25998;46.604;13.610;2023-04-22T09:46:12;3.40;;;2.45;;
40286;SDS011;25998;46.604;13.610;2023-04-22T09:49:23;3.92;;;2.50;;
40286;SDS011;25998;46.604;13.610;2023-04-22T09:52:36;2.65;;;2.45;;
40286;SDS011;25998;46.604;13.610;2023-04-22T09:55:52;3.45;;;2.60;;
40286;SDS011;25998;46.604;13.610;2023-04-22T09:59:06;3.63;;;2.50;;
40286;SDS011;25998;46.604;13.610;2023-04-22T10:02:18;5.82;;;2.45;;
40286;SDS011;25998;46.604;13.610;2023-04-22T10:05:39;2.60;;;2.35;;
40286;SDS011;25998;46.604;13.610;2023-04-22T10:08:50;2.95;;;2.13;;
40286;SDS011;25998;46.604;13.610;2023-04-22T10:12:01;2.80;;;2.28;;
40286;SDS011;25998;46.604;13.610;2023-04-22T10:15:12;2.90;;;2.42;;
40286;SDS011;25998;46.604;13.610;2023-04-22T10:18:23;2.65;;;2.40;;
40286;SDS011;25998;46.604;13.610;2023-04-22T10:21:37;3.65;;;2.30;;
40286;SDS011;25998;46.604;13.610;2023-04-22T10:24:50;3.53;;;2.35;;
40286;SDS011;25998;46.604;13.610;2023-04-22T10:28:05;3.38;;;2.40;;
40286;SDS011;25998;46.604;13.610;2023-04-22T10:31:21;2.83;;;2.20;;
40286;SDS011;25998;46.604;13.610;2023-04-22T10:34:32;2.60;;;2.17;;
40286;SDS011;25998;46.604;13.610;2023-04-22T10:37:48;3.00;;;2.28;;
40286;SDS011;25998;46.604;13.610;2023-04-22T10:40:59;3.47;;;2.35;;
40286;SDS011;25998;46.604;13.610;2023-04-22T10:44:10;3.05;;;2.30;;
40286;SDS011;25998;46.604;13.610;2023-04-22T10:47:28;2.70;;;2.17;;
40286;SDS011;25998;46.604;13.610;2023-04-22T10:50:40;3.58;;;2.60;;
40286;SDS011;25998;46.604;13.610;2023-04-22T10:53:51;3.40;;;2.35;;
40286;SDS011;25998;46.604;13.610;2023-04-22T11:00:25;3.80;;;2.33;;
40286;SDS011;25998;46.604;13.610;2023-04-22T11:03:40;3.35;;;2.20;;
40286;SDS011;25998;46.604;13.610;2023-04-22T11:13:43;3.10;;;2.40;;
40286;SDS011;25998;46.604;13.610;2023-04-22T11:16:59;3.13;;;2.35;;
40286;SDS011;25998;46.604;13.610;2023-04-22T11:20:10;2.97;;;2.17;;
40286;SDS011;25998;46.604;13.610;2023-04-22T11:23:25;3.53;;;2.40;;
40286;SDS011;25998;46.604;13.610;2023-04-22T11:26:37;2.65;;;2.10;;
40286;SDS011;25998;46.604;13.610;2023-04-22T11:33:13;3.17;;;2.03;;
40286;SDS011;25998;46.604;13.610;2023-04-22T11:36:25;3.92;;;2.00;;
40286;SDS011;25998;46.604;13.610;2023-04-22T11:39:36;3.53;;;2.47;;
40286;SDS011;25998;46.604;13.610;2023-04-22T11:42:47;4.38;;;2.83;;
40286;SDS011;25998;46.604;13.610;2023-04-22T11:45:58;9.52;;;5.78;;
40286;SDS011;25998;46.604;13.610;2023-04-22T11:49:10;3.75;;;2.15;;
40286;SDS011;25998;46.604;13.610;2023-04-22T11:52:42;3.35;;;2.45;;
40286;SDS011;25998;46.604;13.610;2023-04-22T11:56:03;7.10;;;3.55;;
40286;SDS011;25998;46.604;13.610;2023-04-22T11:59:14;3.95;;;2.75;;
40286;SDS011;25998;46.604;13.610;2023-04-22T12:02:25;3.80;;;2.00;;
40286;SDS011;25998;46.604;13.610;2023-04-22T12:09:06;2.45;;;1.70;;
40286;SDS011;25998;46.604;13.610;2023-04-22T12:12:17;2.85;;;2.00;;
40286;SDS011;25998;46.604;13.610;2023-04-22T12:15:36;2.80;;;2.03;;
40286;SDS011;25998;46.604;13.610;2023-04-22T12:18:51;3.42;;;1.83;;
40286;SDS011;25998;46.604;13.610;2023-04-22T12:22:03;3.85;;;2.20;;
40286;SDS011;25998;46.604;13.610;2023-04-22T12:25:16;2.33;;;1.75;;
40286;SDS011;25998;46.604;13.610;2023-04-22T12:28:28;2.72;;;1.80;;
40286;SDS011;25998;46.604;13.610;2023-04-22T12:31:39;2.10;;;1.60;;
40286;SDS011;25998;46.604;13.610;2023-04-22T12:34:50;2.30;;;1.77;;
40286;SDS011;25998;46.604;13.610;2023-04-22T12:38:01;2.10;;;1.60;;
40286;SDS011;25998;46.604;13.610;2023-04-22T12:41:12;2.67;;;1.65;;
40286;SDS011;25998;46.604;13.610;2023-04-22T12:44:25;2.70;;;1.88;;
40286;SDS011;25998;46.604;13.610;2023-04-22T12:47:36;2.95;;;1.63;;
40286;SDS011;25998;46.604;13.610;2023-04-22T12:50:47;2.50;;;1.88;;
40286;SDS011;25998;46.604;13.610;2023-04-22T12:54:05;1.83;;;1.45;;
40286;SDS011;25998;46.604;13.610;2023-04-22T12:57:16;2.97;;;2.00;;
40286;SDS011;25998;46.604;13.610;2023-04-22T13:00:27;2.20;;;1.70;;
40286;SDS011;25998;46.604;13.610;2023-04-22T13:03:38;2.20;;;1.60;;
40286;SDS011;25998;46.604;13.610;2023-04-22T13:06:49;3.25;;;1.70;;
40286;SDS011;25998;46.604;13.610;2023-04-22T13:10:06;2.88;;;1.80;;
40286;SDS011;25998;46.604;13.610;2023-04-22T13:13:17;2.95;;;1.70;;
40286;SDS011;25998;46.604;13.610;2023-04-22T13:16:28;2.35;;;1.95;;
40286;SDS011;25998;46.604;13.610;2023-04-22T13:19:39;2.85;;;1.88;;
40286;SDS011;25998;46.604;13.610;2023-04-22T13:22:50;2.63;;;1.90;;
40286;SDS011;25998;46.604;13.610;2023-04-22T13:26:01;2.72;;;1.90;;
40286;SDS011;25998;46.604;13.610;2023-04-22T13:29:15;2.42;;;1.90;;
40286;SDS011;25998;46.604;13.610;2023-04-22T13:32:26;2.40;;;1.77;;
40286;SDS011;25998;46.604;13.610;2023-04-22T13:35:37;2.47;;;1.88;;
40286;SDS011;25998;46.604;13.610;2023-04-22T13:38:48;2.28;;;1.70;;
40286;SDS011;25998;46.604;13.610;2023-04-22T13:42:00;3.65;;;1.95;;
40286;SDS011;25998;46.604;13.610;2023-04-22T13:45:12;2.28;;;1.80;;
40286;SDS011;25998;46.604;13.610;2023-04-22T13:48:23;2.63;;;2.10;;
40286;SDS011;25998;46.604;13.610;2023-04-22T13:51:37;2.42;;;1.90;;
40286;SDS011;25998;46.604;13.610;2023-04-22T13:54:48;2.00;;;1.60;;
40286;SDS011;25998;46.604;13.610;2023-04-22T13:57:59;2.38;;;1.75;;
40286;SDS011;25998;46.604;13.610;2023-04-22T14:01:10;2.60;;;1.70;;
40286;SDS011;25998;46.604;13.610;2023-04-22T14:04:21;2.63;;;2.00;;
40286;SDS011;25998;46.604;13.610;2023-04-22T14:07:32;2.17;;;1.60;;
40286;SDS011;25998;46.604;13.610;2023-04-22T14:10:45;2.30;;;1.90;;
40286;SDS011;25998;46.604;13.610;2023-04-22T14:13:56;2.42;;;1.70;;
40286;SDS011;25998;46.604;13.610;2023-04-22T14:17:07;2.20;;;1.60;;
40286;SDS011;25998;46.604;13.610;2023-04-22T14:20:18;2.75;;;1.80;;
40286;SDS011;25998;46.604;13.610;2023-04-22T14:23:29;2.20;;;1.65;;
40286;SDS011;25998;46.604;13.610;2023-04-22T14:26:40;1.90;;;1.60;;
40286;SDS011;25998;46.604;13.610;2023-04-22T14:29:51;2.97;;;2.00;;
40286;SDS011;25998;46.604;13.610;2023-04-22T14:33:02;2.17;;;1.50;;
40286;SDS011;25998;46.604;13.610;2023-04-22T14:36:16;3.92;;;1.80;;
40286;SDS011;25998;46.604;13.610;2023-04-22T14:39:27;4.18;;;1.67;;
40286;SDS011;25998;46.604;13.610;2023-04-22T14:42:38;2.20;;;1.70;;
40286;SDS011;25998;46.604;13.610;2023-04-22T14:45:50;2.30;;;1.80;;
40286;SDS011;25998;46.604;13.610;2023-04-22T14:49:01;3.28;;;2.28;;
40286;SDS011;25998;46.604;13.610;2023-04-22T14:52:12;3.17;;;1.70;;
40286;SDS011;25998;46.604;13.610;2023-04-22T14:55:22;3.30;;;1.92;;
40286;SDS011;25998;46.604;13.610;2023-04-22T14:58:33;4.90;;;2.40;;
40286;SDS011;25998;46.604;13.610;2023-04-22T15:01:44;6.20;;;2.65;;
40286;SDS011;25998;46.604;13.610;2023-04-22T15:04:55;14.75;;;5.97;;
40286;SDS011;25998;46.604;13.610;2023-04-22T15:08:06;8.32;;;3.50;;
40286;SDS011;25998;46.604;13.610;2023-04-22T15:11:17;9.55;;;3.63;;
40286;SDS011;25998;46.604;13.610;2023-04-22T15:14:28;3.28;;;2.30;;
40286;SDS011;25998;46.604;13.610;2023-04-22T15:17:39;8.68;;;4.25;;
40286;SDS011;25998;46.604;13.610;2023-04-22T15:20:50;2.88;;;2.00;;
40286;SDS011;25998;46.604;13.610;2023-04-22T15:24:01;5.82;;;3.28;;
40286;SDS011;25998;46.604;13.610;2023-04-22T15:27:12;10.05;;;5.35;;
40286;SDS011;25998;46.604;13.610;2023-04-22T15:30:23;18.05;;;7.55;;
40286;SDS011;25998;46.604;13.610;2023-04-22T15:33:34;19.33;;;8.35;;
40286;SDS011;25998;46.604;13.610;2023-04-22T15:36:45;10.73;;;3.88;;
40286;SDS011;25998;46.604;13.610;2023-04-22T15:39:57;3.08;;;2.10;;
40286;SDS011;25998;46.604;13.610;2023-04-22T15:43:08;26.27;;;10.32;;
40286;SDS011;25998;46.604;13.610;2023-04-22T15:46:21;2.38;;;1.80;;
40286;SDS011;25998;46.604;13.610;2023-04-22T15:49:33;2.85;;;1.70;;
40286;SDS011;25998;46.604;13.610;2023-04-22T15:52:46;3.35;;;1.90;;
40286;SDS011;25998;46.604;13.610;2023-04-22T15:55:58;3.28;;;1.75;;
40286;SDS011;25998;46.604;13.610;2023-04-22T15:59:08;2.50;;;1.80;;
40286;SDS011;25998;46.604;13.610;2023-04-22T16:02:21;2.40;;;2.00;;
40286;SDS011;25998;46.604;13.610;2023-04-22T16:05:32;3.05;;;1.88;;
40286;SDS011;25998;46.604;13.610;2023-04-22T16:08:44;2.92;;;2.22;;
40286;SDS011;25998;46.604;13.610;2023-04-22T16:11:55;3.15;;;1.80;;
40286;SDS011;25998;46.604;13.610;2023-04-22T16:15:07;3.03;;;1.85;;
40286;SDS011;25998;46.604;13.610;2023-04-22T16:18:19;3.95;;;2.05;;
40286;SDS011;25998;46.604;13.610;2023-04-22T16:21:30;3.67;;;2.10;;
40286;SDS011;25998;46.604;13.610;2023-04-22T16:24:41;3.33;;;2.10;;
40286;SDS011;25998;46.604;13.610;2023-04-22T16:27:54;3.00;;;2.10;;
40286;SDS011;25998;46.604;13.610;2023-04-22T16:31:05;2.83;;;2.10;;
40286;SDS011;25998;46.604;13.610;2023-04-22T16:34:17;3.13;;;2.13;;
40286;SDS011;25998;46.604;13.610;2023-04-22T16:37:31;5.22;;;2.25;;
40286;SDS011;25998;46.604;13.610;2023-04-22T16:40:43;3.67;;;2.30;;
40286;SDS011;25998;46.604;13.610;2023-04-22T16:43:54;4.55;;;2.70;;
40286;SDS011;25998;46.604;13.610;2023-04-22T16:47:05;4.60;;;2.40;;
40286;SDS011;25998;46.604;13.610;2023-04-22T16:50:16;3.67;;;2.80;;
40286;SDS011;25998;46.604;13.610;2023-04-22T16:53:29;2.95;;;2.45;;
40286;SDS011;25998;46.604;13.610;2023-04-22T16:56:40;6.25;;;2.65;;
40286;SDS011;25998;46.604;13.610;2023-04-22T16:59:51;3.45;;;2.70;;
40286;SDS011;25998;46.604;13.610;2023-04-22T17:03:04;6.72;;;2.67;;
40286;SDS011;25998;46.604;13.610;2023-04-22T17:06:20;4.15;;;2.47;;
40286;SDS011;25998;46.604;13.610;2023-04-22T17:09:31;3.45;;;2.50;;
40286;SDS011;25998;46.604;13.610;2023-04-22T17:12:42;3.13;;;2.40;;
40286;SDS011;25998;46.604;13.610;2023-04-22T17:15:53;3.42;;;2.83;;
40286;SDS011;25998;46.604;13.610;2023-04-22T17:19:04;5.20;;;2.67;;
40286;SDS011;25998;46.604;13.610;2023-04-22T17:22:18;3.78;;;2.90;;
40286;SDS011;25998;46.604;13.610;2023-04-22T17:25:29;3.92;;;2.72;;
40286;SDS011;25998;46.604;13.610;2023-04-22T17:28:40;3.55;;;2.60;;
40286;SDS011;25998;46.604;13.610;2023-04-22T17:31:51;3.10;;;2.72;;
40286;SDS011;25998;46.604;13.610;2023-04-22T17:35:02;4.28;;;2.80;;
40286;SDS011;25998;46.604;13.610;2023-04-22T17:38:13;8.15;;;3.90;;
40286;SDS011;25998;46.604;13.610;2023-04-22T17:41:24;10.15;;;6.93;;
40286;SDS011;25998;46.604;13.610;2023-04-22T17:44:35;5.97;;;4.65;;
40286;SDS011;25998;46.604;13.610;2023-04-22T17:47:46;7.78;;;6.38;;
40286;SDS011;25998;46.604;13.610;2023-04-22T17:51:00;5.47;;;4.22;;
40286;SDS011;25998;46.604;13.610;2023-04-22T17:54:14;5.43;;;3.38;;
40286;SDS011;25998;46.604;13.610;2023-04-22T17:57:25;6.07;;;3.13;;
40286;SDS011;25998;46.604;13.610;2023-04-22T18:00:37;4.65;;;3.10;;
40286;SDS011;25998;46.604;13.610;2023-04-22T18:03:48;4.55;;;3.47;;
40286;SDS011;25998;46.604;13.610;2023-04-22T18:06:59;4.28;;;3.47;;
40286;SDS011;25998;46.604;13.610;2023-04-22T18:10:10;4.72;;;3.15;;
40286;SDS011;25998;46.604;13.610;2023-04-22T18:13:21;3.85;;;3.20;;
40286;SDS011;25998;46.604;13.610;2023-04-22T18:16:35;4.00;;;3.28;;
40286;SDS011;25998;46.604;13.610;2023-04-22T18:19:46;4.82;;;3.72;;
40286;SDS011;25998;46.604;13.610;2023-04-22T18:23:00;5.57;;;3.42;;
40286;SDS011;25998;46.604;13.610;2023-04-22T18:26:11;7.03;;;4.28;;
40286;SDS011;25998;46.604;13.610;2023-04-22T18:29:21;6.40;;;3.60;;
40286;SDS011;25998;46.604;13.610;2023-04-22T18:32:32;4.85;;;3.00;;
40286;SDS011;25998;46.604;13.610;2023-04-22T18:35:43;4.40;;;3.38;;
40286;SDS011;25998;46.604;13.610;2023-04-22T18:38:56;4.75;;;3.22;;
40286;SDS011;25998;46.604;13.610;2023-04-22T18:42:07;3.90;;;3.20;;
40286;SDS011;25998;46.604;13.610;2023-04-22T18:45:18;4.10;;;3.05;;
40286;SDS011;25998;46.604;13.610;2023-04-22T18:48:31;4.55;;;3.10;;
40286;SDS011;25998;46.604;13.610;2023-04-22T18:51:42;4.88;;;3.72;;
40286;SDS011;25998;46.604;13.610;2023-04-22T18:54:55;5.07;;;3.30;;
40286;SDS011;25998;46.604;13.610;2023-04-22T18:58:06;4.72;;;3.20;;
40286;SDS011;25998;46.604;13.610;2023-04-22T19:01:17;4.03;;;3.50;;
40286;SDS011;25998;46.604;13.610;2023-04-22T19:04:28;3.53;;;3.22;;
40286;SDS011;25998;46.604;13.610;2023-04-22T19:07:40;5.05;;;3.40;;
40286;SDS011;25998;46.604;13.610;2023-04-22T19:10:50;3.83;;;3.42;;
40286;SDS011;25998;46.604;13.610;2023-04-22T19:14:03;4.35;;;3.58;;